createdAt,value
2023-06-11T00:00:02.442Z,0.00
2023-06-11T00:00:33.398Z,0.00
2023-06-11T00:01:05.396Z,0.00
2023-06-11T00:01:34.456Z,0.00
2023-06-11T00:01:53.429Z,0.00
2023-06-11T00:02:26.467Z,0.00
2023-06-11T00:02:57.715Z,0.00
2023-06-11T00:03:30.449Z,0.00
2023-06-11T00:04:01.525Z,0.00
2023-06-11T00:04:34.574Z,0.00
2023-06-11T00:05:05.433Z,0.00
2023-06-11T00:05:34.751Z,0.00
2023-06-11T00:05:53.380Z,0.00
2023-06-11T00:06:25.378Z,0.00
2023-06-11T00:06:58.289Z,0.00
2023-06-11T00:07:29.383Z,0.00
2023-06-11T00:08:02.375Z,0.00
2023-06-11T00:08:33.324Z,0.00
2023-06-11T00:09:06.319Z,0.00
2023-06-11T00:09:34.477Z,0.00
2023-06-11T00:09:53.328Z,0.00
2023-06-11T00:10:25.406Z,0.00
2023-06-11T00:10:57.460Z,0.00
2023-06-11T00:11:29.384Z,0.00
2023-06-11T00:12:02.562Z,0.00
2023-06-11T00:12:33.388Z,0.00
2023-06-11T00:13:05.441Z,0.00
2023-06-11T00:13:34.519Z,0.00
2023-06-11T00:13:53.357Z,0.00
2023-06-11T00:14:26.370Z,0.00
2023-06-11T00:14:57.818Z,0.00
2023-06-11T00:15:30.281Z,0.00
2023-06-11T00:16:01.465Z,0.00
2023-06-11T00:16:34.753Z,0.00
2023-06-11T00:17:05.426Z,0.00
2023-06-11T00:17:34.664Z,0.00
2023-06-11T00:17:53.480Z,0.00
2023-06-11T00:18:25.356Z,0.00
2023-06-11T00:18:59.121Z,0.00
2023-06-11T00:19:29.341Z,0.00
2023-06-11T00:20:02.821Z,0.00
2023-06-11T00:20:33.354Z,0.00
2023-06-11T00:21:06.407Z,0.00
2023-06-11T00:21:34.442Z,0.00
2023-06-11T00:21:53.396Z,0.00
2023-06-11T00:22:25.330Z,0.00
2023-06-11T00:22:57.362Z,0.00
2023-06-11T00:23:29.367Z,0.00
2023-06-11T00:24:01.446Z,0.00
2023-06-11T00:24:33.342Z,0.00
2023-06-11T00:25:05.533Z,0.00
2023-06-11T00:25:34.447Z,0.00
2023-06-11T00:25:53.321Z,0.00
2023-06-11T00:26:26.259Z,0.00
2023-06-11T00:26:57.800Z,0.00
2023-06-11T00:27:30.484Z,0.00
2023-06-11T00:28:01.381Z,0.00
2023-06-11T00:28:34.391Z,0.00
2023-06-11T00:29:05.355Z,0.00
2023-06-11T00:29:34.535Z,0.00
2023-06-11T00:30:09.335Z,0.00
2023-06-11T00:30:34.470Z,0.00
2023-06-11T00:30:58.346Z,0.00
2023-06-11T00:31:29.457Z,0.00
2023-06-11T00:32:02.384Z,0.00
2023-06-11T00:32:33.408Z,0.00
2023-06-11T00:33:06.228Z,0.00
2023-06-11T00:33:34.474Z,0.00
2023-06-11T00:33:53.412Z,0.00
2023-06-11T00:34:25.299Z,0.00
2023-06-11T00:34:57.363Z,0.00
2023-06-11T00:35:29.307Z,0.00
2023-06-11T00:36:01.503Z,0.00
2023-06-11T00:36:35.181Z,0.00
2023-06-11T00:37:05.380Z,0.00
2023-06-11T00:37:34.493Z,0.00
2023-06-11T00:37:53.396Z,0.00
2023-06-11T00:38:26.172Z,0.00
2023-06-11T00:38:57.333Z,0.00
2023-06-11T00:39:30.266Z,0.00
2023-06-11T00:40:02.364Z,0.00
2023-06-11T00:40:34.372Z,0.00
2023-06-11T00:41:05.650Z,0.00
2023-06-11T00:41:35.271Z,0.00
2023-06-11T00:41:53.313Z,0.00
2023-06-11T00:42:25.552Z,0.00
2023-06-11T00:42:43.281Z,0.00
2023-06-11T00:43:13.352Z,0.00
2023-06-11T00:43:34.484Z,0.00
2023-06-11T00:44:01.347Z,0.00
2023-06-11T00:44:33.361Z,0.00
2023-06-11T00:45:06.322Z,0.00
2023-06-11T00:45:34.605Z,0.00
2023-06-11T00:45:54.251Z,0.00
2023-06-11T00:46:25.381Z,0.00
2023-06-11T00:46:57.267Z,0.00
2023-06-11T00:47:29.361Z,0.00
2023-06-11T00:48:01.427Z,0.00
2023-06-11T00:48:33.324Z,0.00
2023-06-11T00:49:05.288Z,0.00
2023-06-11T00:49:34.464Z,0.00
2023-06-11T00:49:53.541Z,0.00
2023-06-11T00:50:26.213Z,0.00
2023-06-11T00:50:57.473Z,0.00
2023-06-11T00:51:30.387Z,0.00
2023-06-11T00:52:01.551Z,0.00
2023-06-11T00:52:34.363Z,0.00
2023-06-11T00:53:07.493Z,0.00
2023-06-11T00:53:36.336Z,0.00
2023-06-11T00:54:09.767Z,0.00
2023-06-11T00:54:35.193Z,0.00
2023-06-11T00:54:59.664Z,0.00
2023-06-11T00:55:29.264Z,0.00
2023-06-11T00:56:02.310Z,0.00
2023-06-11T00:56:33.270Z,0.00
2023-06-11T00:57:06.240Z,0.00
2023-06-11T00:57:34.536Z,0.00
2023-06-11T00:57:53.261Z,0.00
2023-06-11T00:58:25.364Z,0.00
2023-06-11T00:58:42.397Z,0.00
2023-06-11T00:59:14.329Z,0.00
2023-06-11T00:59:34.457Z,0.00
2023-06-11T01:00:02.649Z,0.00
2023-06-11T01:00:33.304Z,0.00
2023-06-11T01:01:05.360Z,0.00
2023-06-11T01:01:34.584Z,0.00
2023-06-11T01:02:09.257Z,0.00
2023-06-11T01:02:34.481Z,0.00
2023-06-11T01:02:57.287Z,0.00
2023-06-11T01:03:30.234Z,0.00
2023-06-11T01:04:01.367Z,0.00
2023-06-11T01:04:34.487Z,0.00
2023-06-11T01:05:05.413Z,0.00
2023-06-11T01:05:35.641Z,0.00
2023-06-11T01:05:53.276Z,0.00
2023-06-11T01:06:25.303Z,0.00
2023-06-11T01:06:58.213Z,0.00
2023-06-11T01:07:29.263Z,0.00
2023-06-11T01:08:02.240Z,0.00
2023-06-11T01:08:33.263Z,0.00
2023-06-11T01:09:06.500Z,0.00
2023-06-11T01:09:34.432Z,0.00
2023-06-11T01:09:53.320Z,0.00
2023-06-11T01:10:25.281Z,0.00
2023-06-11T01:10:57.801Z,0.00
2023-06-11T01:11:29.272Z,0.00
2023-06-11T01:12:02.305Z,0.00
2023-06-11T01:12:33.291Z,0.00
2023-06-11T01:13:05.285Z,0.00
2023-06-11T01:13:34.486Z,0.00
2023-06-11T01:13:53.321Z,0.00
2023-06-11T01:14:26.209Z,0.00
2023-06-11T01:14:57.837Z,0.00
2023-06-11T01:15:30.431Z,0.00
2023-06-11T01:16:01.261Z,0.00
2023-06-11T01:16:34.209Z,0.00
2023-06-11T01:17:05.321Z,0.00
2023-06-11T01:17:35.514Z,0.00
2023-06-11T01:17:53.345Z,0.00
2023-06-11T01:18:25.303Z,0.00
2023-06-11T01:19:00.468Z,0.00
2023-06-11T01:19:29.371Z,0.00
2023-06-11T01:20:03.776Z,0.00
2023-06-11T01:20:33.312Z,0.00
2023-06-11T01:21:06.134Z,0.00
2023-06-11T01:21:34.460Z,0.00
2023-06-11T01:21:53.269Z,0.00
2023-06-11T01:22:25.282Z,0.00
2023-06-11T01:22:42.966Z,0.00
2023-06-11T01:23:14.274Z,0.00
2023-06-11T01:23:34.521Z,0.00
2023-06-11T01:24:01.385Z,0.00
2023-06-11T01:24:33.250Z,0.00
2023-06-11T01:25:05.269Z,0.00
2023-06-11T01:25:34.506Z,0.00
2023-06-11T01:25:53.290Z,0.00
2023-06-11T01:26:26.155Z,0.00
2023-06-11T01:26:57.292Z,0.00
2023-06-11T01:27:30.337Z,0.00
2023-06-11T01:28:01.293Z,0.00
2023-06-11T01:28:34.256Z,0.00
2023-06-11T01:29:05.338Z,0.00
2023-06-11T01:29:35.429Z,0.00
2023-06-11T01:29:53.202Z,0.00
2023-06-11T01:30:25.334Z,0.00
2023-06-11T01:30:58.175Z,0.00
2023-06-11T01:31:29.417Z,0.00
2023-06-11T01:32:02.125Z,0.00
2023-06-11T01:32:33.334Z,0.00
2023-06-11T01:33:06.269Z,0.00
2023-06-11T01:33:34.415Z,0.00
2023-06-11T01:33:53.285Z,0.00
2023-06-11T01:34:25.309Z,0.00
2023-06-11T01:34:57.412Z,0.00
2023-06-11T01:35:29.224Z,0.00
2023-06-11T01:36:01.440Z,0.00
2023-06-11T01:36:33.358Z,0.00
2023-06-11T01:37:11.488Z,0.00
2023-06-11T01:37:22.121Z,0.00
2023-06-11T01:37:39.326Z,0.00
2023-06-11T01:38:09.581Z,0.00
2023-06-11T01:38:35.254Z,0.00
2023-06-11T01:38:57.297Z,0.00
2023-06-11T01:39:30.268Z,0.00
2023-06-11T01:40:02.259Z,0.00
2023-06-11T01:40:34.289Z,0.00
2023-06-11T01:41:05.433Z,0.00
2023-06-11T01:41:35.451Z,0.00
2023-06-11T01:41:53.276Z,0.00
2023-06-11T01:42:25.208Z,0.00
2023-06-11T01:42:43.264Z,0.00
2023-06-11T01:43:13.319Z,0.00
2023-06-11T01:43:35.243Z,0.00
2023-06-11T01:44:01.316Z,0.00
2023-06-11T01:44:33.261Z,0.00
2023-06-11T01:45:06.329Z,0.00
2023-06-11T01:45:34.449Z,0.00
2023-06-11T01:45:55.147Z,0.00
2023-06-11T01:46:25.252Z,0.00
2023-06-11T01:46:42.526Z,0.00
2023-06-11T01:47:14.323Z,0.00
2023-06-11T01:47:35.255Z,0.00
2023-06-11T01:48:01.277Z,0.00
2023-06-11T01:48:33.329Z,0.00
2023-06-11T01:49:05.440Z,0.00
2023-06-11T01:49:34.422Z,0.00
2023-06-11T01:49:53.173Z,0.00
2023-06-11T01:50:26.121Z,0.00
2023-06-11T01:50:57.215Z,0.00
2023-06-11T01:51:30.163Z,0.00
2023-06-11T01:52:01.288Z,0.00
2023-06-11T01:52:34.296Z,0.00
2023-06-11T01:53:05.201Z,0.00
2023-06-11T01:53:35.346Z,0.00
2023-06-11T01:53:53.236Z,0.00
2023-06-11T01:54:25.215Z,0.00
2023-06-11T01:54:43.465Z,0.00
2023-06-11T01:55:15.179Z,0.00
2023-06-11T01:55:34.443Z,0.00
2023-06-11T01:56:01.306Z,0.00
2023-06-11T01:56:33.180Z,0.00
2023-06-11T01:57:06.234Z,0.00
2023-06-11T01:57:34.524Z,0.00
2023-06-11T01:57:53.251Z,0.00
2023-06-11T01:58:25.251Z,0.00
2023-06-11T01:58:57.697Z,0.00
2023-06-11T01:59:29.373Z,0.00
2023-06-11T02:00:02.423Z,0.00
2023-06-11T02:00:33.196Z,0.00
2023-06-11T02:01:05.273Z,0.00
2023-06-11T02:01:35.071Z,0.00
2023-06-11T02:01:53.286Z,0.00
2023-06-11T02:02:26.146Z,0.00
2023-06-11T02:02:57.495Z,0.00
2023-06-11T02:03:32.200Z,0.00
2023-06-11T02:04:01.477Z,0.00
2023-06-11T02:04:34.345Z,0.00
2023-06-11T02:05:05.182Z,0.00
2023-06-11T02:05:36.397Z,0.00
2023-06-11T02:05:53.343Z,0.00
2023-06-11T02:06:25.301Z,0.00
2023-06-11T02:06:43.354Z,0.00
2023-06-11T02:07:13.183Z,0.00
2023-06-11T02:07:35.044Z,0.00
2023-06-11T02:08:01.231Z,0.00
2023-06-11T02:08:33.200Z,0.00
2023-06-11T02:09:11.358Z,0.00
2023-06-11T02:09:22.279Z,0.00
2023-06-11T02:09:39.650Z,0.00
2023-06-11T02:10:09.207Z,0.00
2023-06-11T02:10:34.452Z,0.00
2023-06-11T02:10:57.426Z,0.00
2023-06-11T02:11:30.108Z,0.00
2023-06-11T02:12:02.297Z,0.00
2023-06-11T02:12:34.124Z,0.00
2023-06-11T02:13:05.266Z,0.00
2023-06-11T02:13:35.680Z,0.00
2023-06-11T02:13:53.282Z,0.00
2023-06-11T02:14:25.220Z,0.00
2023-06-11T02:14:43.294Z,0.00
2023-06-11T02:15:13.483Z,0.00
2023-06-11T02:15:35.471Z,0.00
2023-06-11T02:16:01.353Z,0.00
2023-06-11T02:16:33.284Z,0.00
2023-06-11T02:17:06.082Z,0.00
2023-06-11T02:17:34.535Z,0.00
2023-06-11T02:17:53.195Z,0.00
2023-06-11T02:18:25.231Z,0.00
2023-06-11T02:18:42.404Z,0.00
2023-06-11T02:19:14.095Z,0.00
2023-06-11T02:19:34.452Z,0.00
2023-06-11T02:20:02.383Z,0.00
2023-06-11T02:20:33.306Z,0.00
2023-06-11T02:21:05.208Z,0.00
2023-06-11T02:21:34.434Z,0.00
2023-06-11T02:21:53.235Z,0.00
2023-06-11T02:22:26.003Z,0.00
2023-06-11T02:22:42.545Z,0.00
2023-06-11T02:23:13.227Z,0.00
2023-06-11T02:23:34.441Z,0.00
2023-06-11T02:24:01.291Z,0.00
2023-06-11T02:24:34.105Z,0.00
2023-06-11T02:25:05.239Z,0.00
2023-06-11T02:25:35.348Z,0.00
2023-06-11T02:25:53.212Z,0.00
2023-06-11T02:26:31.383Z,0.00
2023-06-11T02:26:34.405Z,0.00
2023-06-11T02:26:57.780Z,0.00
2023-06-11T02:27:29.150Z,0.00
2023-06-11T02:28:02.078Z,0.00
2023-06-11T02:28:33.639Z,0.00
2023-06-11T02:29:06.167Z,0.00
2023-06-11T02:29:34.413Z,0.00
2023-06-11T02:29:53.173Z,0.00
2023-06-11T02:30:27.090Z,0.00
2023-06-11T02:30:57.377Z,0.00
2023-06-11T02:31:29.628Z,0.00
2023-06-11T02:32:01.274Z,0.00
2023-06-11T02:32:33.176Z,0.00
2023-06-11T02:33:05.323Z,0.00
2023-06-11T02:33:34.513Z,0.00
2023-06-11T02:33:53.239Z,0.00
2023-06-11T02:34:26.158Z,0.00
2023-06-11T02:35:04.348Z,0.00
2023-06-11T02:35:14.354Z,0.00
2023-06-11T02:35:36.839Z,0.00
2023-06-11T02:36:01.189Z,0.00
2023-06-11T02:36:34.199Z,0.00
2023-06-11T02:37:05.367Z,0.00
2023-06-11T02:37:35.429Z,0.00
2023-06-11T02:37:53.125Z,0.00
2023-06-11T02:38:25.217Z,0.00
2023-06-11T02:38:44.165Z,0.00
2023-06-11T02:39:13.167Z,0.00
2023-06-11T02:39:34.479Z,0.00
2023-06-11T02:40:02.377Z,0.00
2023-06-11T02:40:33.165Z,0.00
2023-06-11T02:41:06.093Z,0.00
2023-06-11T02:41:34.428Z,0.00
2023-06-11T02:41:53.348Z,0.00
2023-06-11T02:42:25.182Z,0.00
2023-06-11T02:42:42.360Z,0.00
2023-06-11T02:43:14.029Z,0.00
2023-06-11T02:43:34.674Z,0.00
2023-06-11T02:44:01.282Z,0.00
2023-06-11T02:44:33.150Z,0.00
2023-06-11T02:45:05.200Z,0.00
2023-06-11T02:45:34.431Z,0.00
2023-06-11T02:45:53.190Z,0.00
2023-06-11T02:46:26.104Z,0.00
2023-06-11T02:46:57.392Z,0.00
2023-06-11T02:47:30.084Z,0.00
2023-06-11T02:48:02.777Z,0.00
2023-06-11T02:48:34.243Z,0.00
2023-06-11T02:49:05.807Z,0.00
2023-06-11T02:49:35.357Z,0.00
2023-06-11T02:49:53.109Z,0.00
2023-06-11T02:50:25.194Z,0.00
2023-06-11T02:50:43.408Z,0.00
2023-06-11T02:51:13.121Z,0.00
2023-06-11T02:51:34.440Z,0.00
2023-06-11T02:52:01.250Z,0.00
2023-06-11T02:52:33.197Z,0.00
2023-06-11T02:53:06.045Z,0.00
2023-06-11T02:53:35.337Z,0.00
2023-06-11T02:53:53.122Z,0.00
2023-06-11T02:54:25.160Z,0.00
2023-06-11T02:54:42.776Z,0.00
2023-06-11T02:55:15.077Z,0.00
2023-06-11T02:55:34.457Z,0.00
2023-06-11T02:56:01.437Z,0.00
2023-06-11T02:56:33.303Z,0.00
2023-06-11T02:57:05.180Z,0.00
2023-06-11T02:57:34.473Z,0.00
2023-06-11T02:57:53.190Z,0.00
2023-06-11T02:58:26.024Z,0.00
2023-06-11T02:58:57.676Z,0.00
2023-06-11T02:59:30.169Z,0.00
2023-06-11T03:00:02.331Z,0.00
2023-06-11T03:00:34.153Z,0.00
2023-06-11T03:01:05.255Z,0.00
2023-06-11T03:01:36.044Z,0.00
2023-06-11T03:01:53.252Z,0.00
2023-06-11T03:02:25.218Z,0.00
2023-06-11T03:02:43.396Z,0.00
2023-06-11T03:03:13.221Z,0.00
2023-06-11T03:03:35.661Z,0.00
2023-06-11T03:04:01.266Z,0.00
2023-06-11T03:04:33.095Z,0.00
2023-06-11T03:05:06.196Z,0.00
2023-06-11T03:05:34.432Z,0.00
2023-06-11T03:05:53.104Z,0.00
2023-06-11T03:06:25.194Z,0.00
2023-06-11T03:06:42.418Z,0.00
2023-06-11T03:07:14.175Z,0.00
2023-06-11T03:07:34.658Z,0.00
2023-06-11T03:08:01.201Z,0.00
2023-06-11T03:08:33.145Z,0.00
2023-06-11T03:09:05.127Z,0.00
2023-06-11T03:09:34.445Z,0.00
2023-06-11T03:09:53.090Z,0.00
2023-06-11T03:10:26.047Z,0.00
2023-06-11T03:10:57.289Z,0.00
2023-06-11T03:11:30.395Z,0.36
2023-06-11T03:12:02.339Z,0.00
2023-06-11T03:12:34.302Z,0.00
2023-06-11T03:13:05.225Z,0.36
2023-06-11T03:13:35.929Z,0.36
2023-06-11T03:13:53.355Z,0.00
2023-06-11T03:14:25.333Z,0.00
2023-06-11T03:14:58.749Z,0.36
2023-06-11T03:15:29.230Z,1.22
2023-06-11T03:16:02.750Z,0.36
2023-06-11T03:16:33.390Z,0.85
2023-06-11T03:17:06.091Z,0.85
2023-06-11T03:17:34.541Z,1.22
2023-06-11T03:17:53.131Z,0.36
2023-06-11T03:18:25.191Z,1.22
2023-06-11T03:18:57.542Z,1.22
2023-06-11T03:19:29.121Z,0.85
2023-06-11T03:20:02.325Z,0.85
2023-06-11T03:20:33.175Z,1.71
2023-06-11T03:21:05.205Z,1.71
2023-06-11T03:21:34.471Z,1.22
2023-06-11T03:21:53.404Z,1.71
2023-06-11T03:22:26.073Z,1.71
2023-06-11T03:22:57.776Z,2.08
2023-06-11T03:23:30.168Z,2.08
2023-06-11T03:24:01.578Z,2.57
2023-06-11T03:24:34.393Z,2.08
2023-06-11T03:25:05.399Z,2.94
2023-06-11T03:25:36.604Z,2.94
2023-06-11T03:25:53.162Z,2.94
2023-06-11T03:26:25.261Z,3.43
2023-06-11T03:26:43.791Z,2.57
2023-06-11T03:27:13.367Z,3.43
2023-06-11T03:27:35.068Z,3.43
2023-06-11T03:28:01.354Z,3.79
2023-06-11T03:28:35.174Z,3.79
2023-06-11T03:29:05.312Z,3.79
2023-06-11T03:29:34.693Z,3.43
2023-06-11T03:29:53.355Z,4.28
2023-06-11T03:30:25.308Z,4.77
2023-06-11T03:30:58.143Z,3.79
2023-06-11T03:31:31.132Z,4.28
2023-06-11T03:32:02.176Z,4.28
2023-06-11T03:32:33.594Z,5.14
2023-06-11T03:33:06.248Z,5.14
2023-06-11T03:33:35.743Z,5.99
2023-06-11T03:33:53.336Z,5.99
2023-06-11T03:34:25.141Z,5.63
2023-06-11T03:34:42.358Z,6.48
2023-06-11T03:35:14.536Z,6.48
2023-06-11T03:35:35.196Z,5.63
2023-06-11T03:36:01.201Z,6.85
2023-06-11T03:36:33.160Z,6.85
2023-06-11T03:37:05.318Z,6.85
2023-06-11T03:37:36.160Z,7.34
2023-06-11T03:38:09.190Z,8.19
2023-06-11T03:38:35.024Z,7.70
2023-06-11T03:38:57.623Z,8.19
2023-06-11T03:39:29.234Z,8.19
2023-06-11T03:40:02.456Z,8.19
2023-06-11T03:40:33.190Z,8.19
2023-06-11T03:41:06.228Z,8.56
2023-06-11T03:41:34.640Z,9.05
2023-06-11T03:41:53.148Z,8.56
2023-06-11T03:42:25.320Z,9.05
2023-06-11T03:43:00.609Z,9.54
2023-06-11T03:43:30.181Z,9.54
2023-06-11T03:44:01.249Z,9.91
2023-06-11T03:44:34.405Z,9.91
2023-06-11T03:45:05.489Z,9.91
2023-06-11T03:45:35.628Z,10.77
2023-06-11T03:45:53.230Z,10.77
2023-06-11T03:46:25.375Z,10.39
2023-06-11T03:46:58.372Z,10.39
2023-06-11T03:47:29.197Z,11.62
2023-06-11T03:48:02.287Z,11.62
2023-06-11T03:48:33.072Z,11.62
2023-06-11T03:49:07.425Z,11.62
2023-06-11T03:49:35.171Z,11.25
2023-06-11T03:49:53.208Z,12.48
2023-06-11T03:50:25.255Z,12.48
2023-06-11T03:50:57.716Z,12.97
2023-06-11T03:51:29.389Z,12.97
2023-06-11T03:52:01.359Z,13.33
2023-06-11T03:52:33.207Z,13.33
2023-06-11T03:53:05.143Z,13.82
2023-06-11T03:53:34.518Z,14.31
2023-06-11T03:53:53.212Z,13.82
2023-06-11T03:54:26.062Z,14.31
2023-06-11T03:54:57.720Z,15.17
2023-06-11T03:55:29.923Z,15.53
2023-06-11T03:56:01.243Z,15.53
2023-06-11T03:56:34.010Z,16.02
2023-06-11T03:57:05.719Z,16.02
2023-06-11T03:57:35.568Z,16.88
2023-06-11T03:57:53.085Z,16.88
2023-06-11T03:58:26.373Z,16.88
2023-06-11T03:58:58.434Z,16.88
2023-06-11T03:59:29.231Z,17.73
2023-06-11T04:00:02.874Z,18.11
2023-06-11T04:00:33.595Z,18.11
2023-06-11T04:01:06.200Z,17.73
2023-06-11T04:01:35.075Z,19.08
2023-06-11T04:01:53.382Z,19.08
2023-06-11T04:02:25.649Z,18.11
2023-06-11T04:02:42.748Z,19.45
2023-06-11T04:03:21.102Z,19.45
2023-06-11T04:03:30.336Z,19.94
2023-06-11T04:04:01.434Z,19.45
2023-06-11T04:04:34.193Z,20.80
2023-06-11T04:05:05.213Z,21.16
2023-06-11T04:05:37.901Z,20.80
2023-06-11T04:06:09.762Z,21.16
2023-06-11T04:06:34.696Z,21.65
2023-06-11T04:06:57.373Z,22.02
2023-06-11T04:07:29.390Z,22.51
2023-06-11T04:08:07.566Z,22.51
2023-06-11T04:08:18.294Z,22.51
2023-06-11T04:08:49.201Z,22.87
2023-06-11T04:09:22.640Z,23.36
2023-06-11T04:09:40.166Z,22.87
2023-06-11T04:10:09.332Z,24.22
2023-06-11T04:10:34.729Z,23.85
2023-06-11T04:10:57.493Z,24.22
2023-06-11T04:11:30.112Z,25.07
2023-06-11T04:12:02.518Z,24.71
2023-06-11T04:12:35.033Z,24.71
2023-06-11T04:13:05.397Z,25.56
2023-06-11T04:13:34.555Z,25.56
2023-06-11T04:13:53.100Z,25.94
2023-06-11T04:14:25.309Z,26.42
2023-06-11T04:14:42.456Z,25.56
2023-06-11T04:15:13.762Z,26.42
2023-06-11T04:15:34.684Z,26.42
2023-06-11T04:16:05.058Z,26.79
2023-06-11T04:16:34.102Z,27.28
2023-06-11T04:17:06.430Z,27.65
2023-06-11T04:17:34.798Z,27.65
2023-06-11T04:17:53.261Z,28.14
2023-06-11T04:18:25.204Z,28.99
2023-06-11T04:18:42.267Z,29.48
2023-06-11T04:19:14.156Z,30.34
2023-06-11T04:19:34.513Z,30.34
2023-06-11T04:20:02.468Z,29.85
2023-06-11T04:20:33.085Z,30.70
2023-06-11T04:21:05.332Z,31.19
2023-06-11T04:21:34.583Z,30.70
2023-06-11T04:21:53.144Z,31.56
2023-06-11T04:22:26.153Z,32.05
2023-06-11T04:22:57.232Z,32.42
2023-06-11T04:23:31.198Z,33.39
2023-06-11T04:24:01.367Z,33.39
2023-06-11T04:24:34.041Z,33.39
2023-06-11T04:25:05.124Z,33.39
2023-06-11T04:25:36.392Z,33.76
2023-06-11T04:25:53.065Z,34.25
2023-06-11T04:26:25.615Z,33.76
2023-06-11T04:26:58.070Z,34.62
2023-06-11T04:27:29.052Z,35.48
2023-06-11T04:28:01.281Z,35.48
2023-06-11T04:28:33.106Z,35.97
2023-06-11T04:29:05.319Z,35.97
2023-06-11T04:29:34.758Z,36.82
2023-06-11T04:29:54.273Z,35.97
2023-06-11T04:30:25.169Z,36.82
2023-06-11T04:30:42.368Z,37.19
2023-06-11T04:31:13.265Z,37.68
2023-06-11T04:31:35.633Z,37.19
2023-06-11T04:32:01.977Z,38.17
2023-06-11T04:32:35.092Z,38.17
2023-06-11T04:33:06.206Z,38.53
2023-06-11T04:33:36.260Z,38.53
2023-06-11T04:33:53.317Z,39.02
2023-06-11T04:34:25.179Z,39.02
2023-06-11T04:34:57.800Z,39.88
2023-06-11T04:35:29.162Z,40.24
2023-06-11T04:36:01.472Z,40.73
2023-06-11T04:36:33.096Z,41.10
2023-06-11T04:37:05.153Z,40.73
2023-06-11T04:37:34.730Z,41.59
2023-06-11T04:37:53.341Z,41.59
2023-06-11T04:38:26.034Z,41.59
2023-06-11T04:38:42.448Z,41.59
2023-06-11T04:39:13.189Z,42.45
2023-06-11T04:39:34.897Z,42.94
2023-06-11T04:40:02.570Z,42.94
2023-06-11T04:40:37.968Z,43.80
2023-06-11T04:41:05.296Z,43.31
2023-06-11T04:41:34.529Z,44.65
2023-06-11T04:41:54.103Z,44.16
2023-06-11T04:42:25.064Z,45.02
2023-06-11T04:42:42.410Z,45.02
2023-06-11T04:43:13.086Z,45.02
2023-06-11T04:43:34.650Z,45.51
2023-06-11T04:44:01.998Z,45.02
2023-06-11T04:44:33.126Z,46.36
2023-06-11T04:45:06.272Z,46.36
2023-06-11T04:45:34.520Z,46.36
2023-06-11T04:45:53.156Z,46.36
2023-06-11T04:46:25.317Z,47.22
2023-06-11T04:46:42.700Z,46.73
2023-06-11T04:47:14.174Z,47.22
2023-06-11T04:47:34.759Z,48.07
2023-06-11T04:48:01.186Z,48.07
2023-06-11T04:48:33.200Z,48.56
2023-06-11T04:49:05.285Z,48.56
2023-06-11T04:49:34.796Z,48.56
2023-06-11T04:49:53.068Z,48.93
2023-06-11T04:50:26.133Z,49.42
2023-06-11T04:50:42.425Z,49.42
2023-06-11T04:51:13.499Z,48.93
2023-06-11T04:51:34.606Z,49.79
2023-06-11T04:52:01.136Z,49.42
2023-06-11T04:52:34.058Z,48.93
2023-06-11T04:53:05.272Z,48.56
2023-06-11T04:53:35.663Z,47.71
2023-06-11T04:53:53.167Z,47.22
2023-06-11T04:54:25.139Z,46.36
2023-06-11T04:54:43.524Z,46.36
2023-06-11T04:55:13.415Z,46.73
2023-06-11T04:55:34.639Z,47.22
2023-06-11T04:56:04.775Z,47.22
2023-06-11T04:56:33.214Z,48.07
2023-06-11T04:57:06.053Z,47.71
2023-06-11T04:57:34.609Z,48.07
2023-06-11T04:57:53.057Z,48.56
2023-06-11T04:58:25.030Z,48.56
2023-06-11T04:58:42.615Z,49.42
2023-06-11T04:59:14.102Z,49.79
2023-06-11T04:59:34.521Z,48.93
2023-06-11T05:00:02.445Z,50.28
2023-06-11T05:00:33.268Z,50.65
2023-06-11T05:01:04.994Z,51.14
2023-06-11T05:01:34.848Z,51.99
2023-06-11T05:01:53.191Z,51.99
2023-06-11T05:02:26.406Z,52.85
2023-06-11T05:02:57.893Z,52.85
2023-06-11T05:03:30.193Z,53.70
2023-06-11T05:04:01.230Z,54.56
2023-06-11T05:04:34.522Z,55.90
2023-06-11T05:05:05.135Z,57.25
2023-06-11T05:05:35.529Z,57.25
2023-06-11T05:06:09.209Z,59.33
2023-06-11T05:06:34.983Z,59.33
2023-06-11T05:06:57.512Z,60.19
2023-06-11T05:07:29.147Z,60.68
2023-06-11T05:08:02.295Z,61.17
2023-06-11T05:08:33.161Z,61.53
2023-06-11T05:09:06.369Z,62.02
2023-06-11T05:09:34.535Z,62.02
2023-06-11T05:09:53.246Z,62.39
2023-06-11T05:10:25.197Z,61.17
2023-06-11T05:10:42.349Z,59.33
2023-06-11T05:11:14.160Z,57.25
2023-06-11T05:11:34.484Z,56.27
2023-06-11T05:12:02.345Z,55.41
2023-06-11T05:12:34.012Z,54.56
2023-06-11T05:13:05.456Z,55.90
2023-06-11T05:13:35.590Z,55.41
2023-06-11T05:13:53.100Z,55.05
2023-06-11T05:14:25.102Z,55.90
2023-06-11T05:14:44.055Z,55.90
2023-06-11T05:15:13.392Z,55.41
2023-06-11T05:15:34.634Z,56.76
2023-06-11T05:16:01.285Z,56.27
2023-06-11T05:16:33.286Z,58.11
2023-06-11T05:17:07.581Z,56.76
2023-06-11T05:17:34.862Z,57.25
2023-06-11T05:17:54.603Z,57.25
2023-06-11T05:18:25.191Z,57.62
2023-06-11T05:18:42.375Z,57.62
2023-06-11T05:19:14.455Z,58.11
2023-06-11T05:19:34.549Z,58.11
2023-06-11T05:20:02.164Z,58.48
2023-06-11T05:20:33.102Z,58.48
2023-06-11T05:21:05.220Z,58.11
2023-06-11T05:21:34.808Z,59.33
2023-06-11T05:21:53.350Z,59.82
2023-06-11T05:22:26.114Z,59.33
2023-06-11T05:22:42.706Z,58.97
2023-06-11T05:23:13.099Z,58.97
2023-06-11T05:23:35.120Z,59.33
2023-06-11T05:24:01.125Z,59.82
2023-06-11T05:24:34.018Z,60.19
2023-06-11T05:25:05.156Z,60.19
2023-06-11T05:25:35.388Z,60.19
2023-06-11T05:25:53.203Z,59.82
2023-06-11T05:26:26.628Z,61.17
2023-06-11T05:26:43.515Z,59.82
2023-06-11T05:27:13.436Z,60.68
2023-06-11T05:27:34.486Z,62.02
2023-06-11T05:28:01.088Z,63.73
2023-06-11T05:28:33.141Z,64.96
2023-06-11T05:29:06.129Z,69.36
2023-06-11T05:29:35.163Z,70.22
2023-06-11T05:29:53.035Z,82.82
2023-06-11T05:30:25.284Z,91.87
2023-06-11T05:30:57.222Z,102.76
2023-06-11T05:31:29.049Z,116.22
2023-06-11T05:32:01.276Z,117.07
2023-06-11T05:32:33.784Z,118.78
2023-06-11T05:33:05.111Z,121.36
2023-06-11T05:33:34.721Z,121.85
2023-06-11T05:33:53.116Z,122.34
2023-06-11T05:34:27.933Z,122.70
2023-06-11T05:34:57.198Z,123.19
2023-06-11T05:35:30.088Z,123.19
2023-06-11T05:36:01.298Z,124.90
2023-06-11T05:36:34.302Z,124.90
2023-06-11T05:37:05.185Z,127.10
2023-06-11T05:37:36.548Z,127.47
2023-06-11T05:37:53.286Z,129.68
2023-06-11T05:38:25.075Z,130.04
2023-06-11T05:38:43.620Z,130.53
2023-06-11T05:39:13.216Z,132.73
2023-06-11T05:39:34.855Z,133.10
2023-06-11T05:40:02.317Z,134.44
2023-06-11T05:40:34.226Z,136.65
2023-06-11T05:41:06.077Z,138.36
2023-06-11T05:41:34.606Z,138.73
2023-06-11T05:41:53.125Z,140.44
2023-06-11T05:42:25.265Z,142.27
2023-06-11T05:42:42.679Z,142.64
2023-06-11T05:43:14.104Z,144.85
2023-06-11T05:43:34.807Z,145.21
2023-06-11T05:44:02.880Z,146.19
2023-06-11T05:44:33.657Z,148.27
2023-06-11T05:45:05.248Z,149.12
2023-06-11T05:45:34.668Z,149.61
2023-06-11T05:45:53.274Z,150.47
2023-06-11T05:46:26.994Z,151.82
2023-06-11T05:46:57.315Z,153.04
2023-06-11T05:47:30.338Z,155.24
2023-06-11T05:48:01.214Z,156.10
2023-06-11T05:48:34.116Z,155.24
2023-06-11T05:49:05.187Z,154.75
2023-06-11T05:49:36.348Z,153.90
2023-06-11T05:50:08.367Z,153.90
2023-06-11T05:50:25.063Z,154.39
2023-06-11T05:50:43.449Z,154.75
2023-06-11T05:51:13.267Z,156.59
2023-06-11T05:51:34.857Z,158.30
2023-06-11T05:52:01.470Z,161.36
2023-06-11T05:52:33.126Z,165.27
2023-06-11T05:53:06.869Z,166.13
2023-06-11T05:53:34.703Z,165.64
2023-06-11T05:53:53.084Z,163.93
2023-06-11T05:54:25.098Z,161.73
2023-06-11T05:54:42.309Z,161.36
2023-06-11T05:55:14.051Z,159.53
2023-06-11T05:55:34.626Z,160.02
2023-06-11T05:56:01.078Z,160.87
2023-06-11T05:56:32.999Z,163.44
2023-06-11T05:57:05.058Z,164.29
2023-06-11T05:57:34.519Z,164.29
2023-06-11T05:57:53.012Z,163.07
2023-06-11T05:58:25.850Z,160.87
2023-06-11T05:58:42.400Z,158.67
2023-06-11T05:59:13.009Z,156.59
2023-06-11T05:59:35.265Z,155.73
2023-06-11T06:00:02.644Z,156.59
2023-06-11T06:00:36.024Z,159.16
2023-06-11T06:01:05.167Z,164.29
2023-06-11T06:01:39.296Z,167.36
2023-06-11T06:02:09.252Z,174.81
2023-06-11T06:02:34.665Z,178.24
2023-06-11T06:02:57.053Z,183.02
2023-06-11T06:03:29.199Z,185.58
2023-06-11T06:04:03.046Z,187.29
2023-06-11T06:04:33.101Z,189.13
2023-06-11T06:05:05.929Z,188.64
2023-06-11T06:05:34.522Z,189.13
2023-06-11T06:05:53.110Z,189.49
2023-06-11T06:06:25.053Z,189.13
2023-06-11T06:06:42.252Z,188.64
2023-06-11T06:07:13.829Z,188.64
2023-06-11T06:07:34.536Z,189.13
2023-06-11T06:08:01.075Z,190.84
2023-06-11T06:08:33.043Z,192.56
2023-06-11T06:09:04.988Z,194.76
2023-06-11T06:09:34.699Z,196.47
2023-06-11T06:09:53.059Z,197.81
2023-06-11T06:10:25.906Z,200.75